Flight Track Log - Related Links

Times and Time Zones

All times are in EDT time to prevent confusion due to time zone crossing. See the N350NY flight status page for this flight to view local times or setup timezone preferences in your user account.

Time Position Orientation Groundspeed Altitude Reporting Facility
EDT Latitude Longitude Course Direction KTS MPH feet Rate Location/Type
Fri 02:07:30 PM 44.9267 -74.7033 113° Southeast 275 316 5,500  Level Boston Center
Fri 02:08:30 PM 44.9050 -74.6439 117° Southeast 223 257 7,400 1,850 Climbing Boston Center
Fri 02:09:30 PM 44.8831 -74.5844 118° Southeast 189 217 9,200 1,750 Climbing Boston Center
Fri 02:10:30 PM 44.8614 -74.5222 116° Southeast 180 207 10,900 1,600 Climbing Boston Center
Fri 02:11:30 PM 44.8375 -74.4569 117° Southeast 180 207 12,400 1,500 Climbing Boston Center
Fri 02:12:00 PM 44.7733 -74.3222 113° Southeast  Level FlightAware Approximate
Fri 02:12:30 PM 44.8136 -74.3917 117° Southeast 180 207 13,900  Level Boston Center
Fri 02:13:30 PM 44.7878 -74.3236 118° Southeast 180 207 15,200 1,250 Climbing Boston Center
Fri 02:14:30 PM 44.7617 -74.2497 116° Southeast 185 213 16,400 1,200 Climbing Boston Center
Fri 02:15:30 PM 44.7336 -74.1786 119° Southeast 195 224 17,600 1,100 Climbing Boston Center
Fri 02:16:30 PM 44.6803 -74.1333 149° Southeast 213 245 18,600 700 Climbing Boston Center
Fri 02:17:30 PM 44.6178 -74.1228 173° South 218 251 19,000 200 Climbing Boston Center
Fri 02:18:30 PM 44.5514 -74.1122 174° South 255 293 19,000  Level Boston Center
Fri 02:19:30 PM 44.4786 -74.0986 172° South 265 305 19,000  Level Boston Center
Fri 02:20:30 PM 44.3933 -74.0844 173° South 279 321 19,000  Level Boston Center
Fri 02:21:30 PM 44.3164 -74.0708 173° South 279 321 19,000  Level Boston Center
Fri 02:22:30 PM 44.2542 -74.0603 173° South 279 321 19,000  Level Boston Center
Fri 02:23:30 PM 44.1708 -74.0464 173° South 279 321 19,000  Level Boston Center
Fri 02:24:30 PM 44.0836 -74.0297 172° South 279 321 19,000  Level Boston Center
Fri 02:25:30 PM 44.0089 -74.0192 174° South 279 321 19,000  Level Boston Center
Fri 02:26:30 PM 43.9381 -74.0056 172° South 279 321 19,000  Level Boston Center
Fri 02:27:42 PM 43.8592 -73.9919 173° South 284 327 19,000  Level Boston Center
Fri 02:28:42 PM 43.7656 -73.9753 173° South 284 327 19,000  Level Boston Center
Fri 02:29:42 PM 43.6867 -73.9617 173° South 284 327 19,000  Level Boston Center
Fri 02:30:42 PM 43.6014 -73.9481 173° South 289 333 19,000  Level Boston Center
Fri 02:31:42 PM 43.5264 -73.9347 173° South 289 333 19,000  Level Boston Center
Fri 02:32:42 PM 43.4475 -73.9186 172° South 289 333 19,000  Level Boston Center
Fri 02:33:42 PM 43.3767 -73.9111 176° South 289 333 19,000  Level Boston Center
Fri 02:34:42 PM 43.2914 -73.8947 172° South 289 333 19,000  Level Boston Center
Fri 02:35:42 PM 43.2228 -73.8847 174° South 289 333 19,000  Level Boston Center
Fri 02:36:42 PM 43.1375 -73.8683 172° South 289 333 19,000  Level Boston Center
Fri 02:37:42 PM 43.0689 -73.8583 174° South 289 333 19,000  Level Boston Center
Fri 02:38:42 PM 42.9858 -73.8450 173° South 283 326 19,000 -150 Level Boston Center
Fri 02:39:42 PM 42.9172 -73.8322 172° South 278 320 18,700 -550 Descending Boston Center
Fri 02:40:42 PM 42.8339 -73.8217 175° South 287 330 17,900 -900 Descending Boston Center
Fri 02:41:42 PM 42.7506 -73.8086 173° South 293 337 16,900 -1,000 Descending Boston Center
Fri 02:42:42 PM 42.6672 -73.8067 179° South 298 343 15,900 -1,100 Descending Boston Center
Fri 02:43:42 PM 42.5756 -73.8075 180° South 298 343 14,700 -950 Descending Boston Center
Fri 02:44:42 PM 42.5006 -73.8086 181° South 303 349 14,000 -800 Descending Boston Center
Fri 02:45:42 PM 42.4150 -73.8097 181° South 291 335 13,100 -950 Descending Boston Center
Fri 02:46:42 PM 42.3442 -73.8108 181° South 285 328 12,100 -500 Descending Boston Center
Fri 02:47:42 PM 42.2628 -73.8119 181° South 279 321 12,100  Level Boston Center
Fri 02:48:42 PM 42.1942 -73.8133 181° South 274 315 12,100  Level Boston Center
Fri 02:49:42 PM 42.1169 -73.8142 180° South 269 310 12,100 -50 Level Boston Center
Fri 02:50:42 PM 42.0439 -73.8156 181° South 269 310 12,000 -50 Descending Boston Center
Fri 02:51:42 PM 41.9794 -73.8169 181° South 269 310 12,000 -400 Level Boston Center
Fri 02:52:42 PM 41.8958 -73.8292 186° South 274 315 11,200 -900 Descending Boston Center
Fri 02:53:42 PM 41.8331 -73.8556 197° South 274 315 10,200 -1,045 Descending Boston Center
Fri 02:54:54 PM 41.7511 -73.8983 201° Southwest 254 292 8,900 -1,000 Descending Boston Center
Fri 02:55:54 PM 41.6903 -73.9303 201° Southwest 235 270 8,000 -450 Descending Boston Center
Fri 02:56:54 PM 41.6319 -73.9289 179° South 221 254 8,000 -44 Level Boston Center
Fri 02:58:09 PM 41.5500 -73.9167 174° South 253 291 7,900 -489 Descending New York TRACON
Fri 02:59:09 PM 41.4667 -73.9000 171° South 244 281 6,900 -1,050 Descending New York TRACON
Fri 03:00:09 PM 41.4000 -73.9000 180° South 250 288 5,800 -1,150 Descending New York TRACON
Fri 03:01:09 PM 41.3500 -73.8833 166° South 224 258 4,600 -1,211 Descending New York TRACON
Fri 03:02:03 PM 41.3000 -73.8833 180° South 192 221 3,500 -1,211 Descending New York TRACON
Fri 03:03:03 PM 41.2500 -73.9000 194° South 204 235 2,300 -750 Descending New York TRACON
Fri 03:04:03 PM 41.2167 -73.8333 124° Southeast 188 216 2,000 -143 Descending New York TRACON
Fri 03:05:09 PM 41.1833 -73.7833 132° Southeast 159 183 2,000 -95 Level New York TRACON
Fri 03:06:09 PM 41.1333 -73.7667 166° South 161 185 1,800 -421 Descending New York TRACON
Fri 03:07:03 PM 41.1000 -73.7333 143° Southeast 151 174 1,200 -667 Descending New York TRACON
Fri 03:09:00 PM 41.0669 -73.7076 246° West  Level Estimated
Fri 03:16:00 PM 41.0667 -73.7000 246° West  Level FlightAware Approximate
Fri 03:17:00 PM 41.0669 -73.7076 246° West  Level Estimated

Login

Don't have an account? Register now (free) for customized features, flight alerts, and more!